sensor_id;sensor_type;location;lat;lon;timestamp;P1;durP1;ratioP1;P2;durP2;ratioP2
51236;SDS011;37312;47.550;18.818;2022-09-25T00:02:01;11.12;;;8.60;;
51236;SDS011;37312;47.550;18.818;2022-09-25T00:06:54;8.35;;;7.55;;
51236;SDS011;37312;47.550;18.818;2022-09-25T00:09:20;8.70;;;5.60;;
51236;SDS011;37312;47.550;18.818;2022-09-25T00:11:48;9.55;;;6.20;;
51236;SDS011;37312;47.550;18.818;2022-09-25T00:14:14;8.02;;;6.72;;
51236;SDS011;37312;47.550;18.818;2022-09-25T00:16:40;6.62;;;5.97;;
51236;SDS011;37312;47.550;18.818;2022-09-25T00:21:50;6.90;;;6.30;;
51236;SDS011;37312;47.550;18.818;2022-09-25T00:24:18;7.15;;;6.45;;
51236;SDS011;37312;47.550;18.818;2022-09-25T00:26:44;7.95;;;6.82;;
51236;SDS011;37312;47.550;18.818;2022-09-25T00:29:14;6.90;;;6.05;;
51236;SDS011;37312;47.550;18.818;2022-09-25T00:31:42;6.70;;;6.07;;
51236;SDS011;37312;47.550;18.818;2022-09-25T00:36:34;10.83;;;7.73;;
51236;SDS011;37312;47.550;18.818;2022-09-25T00:39:00;6.70;;;6.00;;
51236;SDS011;37312;47.550;18.818;2022-09-25T00:41:27;7.60;;;6.75;;
51236;SDS011;37312;47.550;18.818;2022-09-25T00:43:56;8.35;;;6.05;;
51236;SDS011;37312;47.550;18.818;2022-09-25T00:49:03;12.98;;;8.45;;
51236;SDS011;37312;47.550;18.818;2022-09-25T00:51:51;5.87;;;5.37;;
51236;SDS011;37312;47.550;18.818;2022-09-25T00:54:27;9.32;;;6.50;;
51236;SDS011;37312;47.550;18.818;2022-09-25T00:56:56;6.62;;;6.03;;
51236;SDS011;37312;47.550;18.818;2022-09-25T00:59:27;6.60;;;5.93;;
51236;SDS011;37312;47.550;18.818;2022-09-25T01:01:56;7.00;;;6.25;;
51236;SDS011;37312;47.550;18.818;2022-09-25T01:04:24;7.55;;;5.87;;
51236;SDS011;37312;47.550;18.818;2022-09-25T01:06:53;6.60;;;6.03;;
51236;SDS011;37312;47.550;18.818;2022-09-25T01:09:19;7.43;;;6.07;;
51236;SDS011;37312;47.550;18.818;2022-09-25T01:11:46;6.53;;;5.95;;
51236;SDS011;37312;47.550;18.818;2022-09-25T01:14:12;7.57;;;6.53;;
51236;SDS011;37312;47.550;18.818;2022-09-25T01:22:45;7.53;;;6.07;;
51236;SDS011;37312;47.550;18.818;2022-09-25T01:30:44;8.05;;;7.25;;
51236;SDS011;37312;47.550;18.818;2022-09-25T01:33:18;7.50;;;6.35;;
51236;SDS011;37312;47.550;18.818;2022-09-25T01:35:59;6.78;;;6.12;;
51236;SDS011;37312;47.550;18.818;2022-09-25T01:38:41;7.70;;;5.93;;
51236;SDS011;37312;47.550;18.818;2022-09-25T01:43:46;6.10;;;5.60;;
51236;SDS011;37312;47.550;18.818;2022-09-25T01:46:15;6.37;;;5.82;;
51236;SDS011;37312;47.550;18.818;2022-09-25T01:48:44;6.05;;;5.50;;
51236;SDS011;37312;47.550;18.818;2022-09-25T01:51:15;5.75;;;5.28;;
51236;SDS011;37312;47.550;18.818;2022-09-25T01:53:56;7.78;;;5.70;;
51236;SDS011;37312;47.550;18.818;2022-09-25T01:56:27;7.53;;;6.93;;
51236;SDS011;37312;47.550;18.818;2022-09-25T01:59:00;6.75;;;6.15;;
51236;SDS011;37312;47.550;18.818;2022-09-25T02:01:41;6.15;;;5.55;;
51236;SDS011;37312;47.550;18.818;2022-09-25T02:04:13;8.00;;;7.18;;
51236;SDS011;37312;47.550;18.818;2022-09-25T02:06:44;11.40;;;8.95;;
51236;SDS011;37312;47.550;18.818;2022-09-25T02:09:13;7.87;;;6.62;;
51236;SDS011;37312;47.550;18.818;2022-09-25T02:11:46;8.25;;;7.05;;
51236;SDS011;37312;47.550;18.818;2022-09-25T02:17:12;6.82;;;6.05;;
51236;SDS011;37312;47.550;18.818;2022-09-25T02:20:02;9.30;;;6.25;;
51236;SDS011;37312;47.550;18.818;2022-09-25T02:22:47;8.75;;;6.32;;
51236;SDS011;37312;47.550;18.818;2022-09-25T02:25:28;7.50;;;6.43;;
51236;SDS011;37312;47.550;18.818;2022-09-25T02:28:08;7.00;;;6.40;;
51236;SDS011;37312;47.550;18.818;2022-09-25T02:30:34;7.55;;;6.30;;
51236;SDS011;37312;47.550;18.818;2022-09-25T02:35:26;6.70;;;6.07;;
51236;SDS011;37312;47.550;18.818;2022-09-25T02:37:53;7.60;;;6.62;;
51236;SDS011;37312;47.550;18.818;2022-09-25T02:40:23;11.18;;;7.20;;
51236;SDS011;37312;47.550;18.818;2022-09-25T02:45:56;8.23;;;6.45;;
51236;SDS011;37312;47.550;18.818;2022-09-25T02:56:40;6.55;;;5.95;;
51236;SDS011;37312;47.550;18.818;2022-09-25T02:59:18;6.65;;;6.05;;
51236;SDS011;37312;47.550;18.818;2022-09-25T03:01:49;7.15;;;6.43;;
51236;SDS011;37312;47.550;18.818;2022-09-25T03:04:16;7.45;;;6.75;;
51236;SDS011;37312;47.550;18.818;2022-09-25T03:06:43;10.57;;;7.50;;
51236;SDS011;37312;47.550;18.818;2022-09-25T03:09:10;6.53;;;5.97;;
51236;SDS011;37312;47.550;18.818;2022-09-25T03:11:39;7.68;;;7.00;;
51236;SDS011;37312;47.550;18.818;2022-09-25T03:14:06;8.32;;;7.57;;
51236;SDS011;37312;47.550;18.818;2022-09-25T03:16:34;9.73;;;6.80;;
51236;SDS011;37312;47.550;18.818;2022-09-25T03:19:06;9.68;;;7.28;;
51236;SDS011;37312;47.550;18.818;2022-09-25T03:21:32;10.48;;;6.60;;
51236;SDS011;37312;47.550;18.818;2022-09-25T03:23:58;8.23;;;6.43;;
51236;SDS011;37312;47.550;18.818;2022-09-25T03:26:25;6.97;;;6.47;;
51236;SDS011;37312;47.550;18.818;2022-09-25T03:28:52;12.73;;;7.10;;
51236;SDS011;37312;47.550;18.818;2022-09-25T03:31:18;7.00;;;6.28;;
51236;SDS011;37312;47.550;18.818;2022-09-25T03:33:44;7.43;;;6.72;;
51236;SDS011;37312;47.550;18.818;2022-09-25T03:38:41;8.85;;;6.57;;
51236;SDS011;37312;47.550;18.818;2022-09-25T03:41:10;7.53;;;6.82;;
51236;SDS011;37312;47.550;18.818;2022-09-25T03:43:38;8.10;;;7.25;;
51236;SDS011;37312;47.550;18.818;2022-09-25T03:46:06;7.80;;;6.37;;
51236;SDS011;37312;47.550;18.818;2022-09-25T03:48:34;7.97;;;7.22;;
51236;SDS011;37312;47.550;18.818;2022-09-25T03:51:01;6.93;;;6.45;;
51236;SDS011;37312;47.550;18.818;2022-09-25T03:53:27;6.93;;;6.32;;
51236;SDS011;37312;47.550;18.818;2022-09-25T03:56:02;9.65;;;7.28;;
51236;SDS011;37312;47.550;18.818;2022-09-25T03:58:30;7.20;;;6.65;;
51236;SDS011;37312;47.550;18.818;2022-09-25T04:00:56;7.45;;;6.85;;
51236;SDS011;37312;47.550;18.818;2022-09-25T04:05:54;6.30;;;5.80;;
51236;SDS011;37312;47.550;18.818;2022-09-25T04:08:22;7.80;;;7.00;;
51236;SDS011;37312;47.550;18.818;2022-09-25T04:10:54;7.10;;;6.43;;
51236;SDS011;37312;47.550;18.818;2022-09-25T04:13:21;6.87;;;6.35;;
51236;SDS011;37312;47.550;18.818;2022-09-25T04:15:48;7.40;;;6.80;;
51236;SDS011;37312;47.550;18.818;2022-09-25T04:18:14;7.60;;;6.93;;
51236;SDS011;37312;47.550;18.818;2022-09-25T04:20:40;8.05;;;7.25;;
51236;SDS011;37312;47.550;18.818;2022-09-25T04:25:32;7.07;;;6.40;;
51236;SDS011;37312;47.550;18.818;2022-09-25T04:27:58;8.05;;;7.28;;
51236;SDS011;37312;47.550;18.818;2022-09-25T04:30:24;8.38;;;7.53;;
51236;SDS011;37312;47.550;18.818;2022-09-25T04:32:52;9.27;;;8.10;;
51236;SDS011;37312;47.550;18.818;2022-09-25T04:35:37;8.48;;;7.68;;
51236;SDS011;37312;47.550;18.818;2022-09-25T04:40:29;7.80;;;7.03;;
51236;SDS011;37312;47.550;18.818;2022-09-25T04:42:59;9.35;;;8.27;;
51236;SDS011;37312;47.550;18.818;2022-09-25T04:45:27;8.18;;;7.35;;
51236;SDS011;37312;47.550;18.818;2022-09-25T04:47:53;8.75;;;6.80;;
51236;SDS011;37312;47.550;18.818;2022-09-25T04:50:20;7.90;;;7.20;;
51236;SDS011;37312;47.550;18.818;2022-09-25T04:52:47;7.70;;;6.95;;
51236;SDS011;37312;47.550;18.818;2022-09-25T04:55:16;10.02;;;7.18;;
51236;SDS011;37312;47.550;18.818;2022-09-25T04:57:43;15.10;;;7.57;;
51236;SDS011;37312;47.550;18.818;2022-09-25T05:00:10;7.50;;;6.85;;
51236;SDS011;37312;47.550;18.818;2022-09-25T05:02:36;12.95;;;7.80;;
51236;SDS011;37312;47.550;18.818;2022-09-25T05:07:28;7.75;;;7.05;;
51236;SDS011;37312;47.550;18.818;2022-09-25T05:09:54;7.28;;;6.15;;
51236;SDS011;37312;47.550;18.818;2022-09-25T05:14:46;8.00;;;7.30;;
51236;SDS011;37312;47.550;18.818;2022-09-25T05:17:12;7.62;;;6.80;;
51236;SDS011;37312;47.550;18.818;2022-09-25T05:19:38;8.35;;;7.50;;
51236;SDS011;37312;47.550;18.818;2022-09-25T05:22:04;9.60;;;6.70;;
51236;SDS011;37312;47.550;18.818;2022-09-25T05:24:29;7.25;;;6.55;;
51236;SDS011;37312;47.550;18.818;2022-09-25T05:26:56;8.95;;;5.57;;
51236;SDS011;37312;47.550;18.818;2022-09-25T05:29:22;6.80;;;6.20;;
51236;SDS011;37312;47.550;18.818;2022-09-25T05:31:51;7.20;;;6.50;;
51236;SDS011;37312;47.550;18.818;2022-09-25T05:34:17;6.07;;;5.45;;
51236;SDS011;37312;47.550;18.818;2022-09-25T05:39:09;5.53;;;5.03;;
51236;SDS011;37312;47.550;18.818;2022-09-25T05:41:35;6.90;;;6.35;;
51236;SDS011;37312;47.550;18.818;2022-09-25T05:44:01;8.77;;;6.62;;
51236;SDS011;37312;47.550;18.818;2022-09-25T05:46:31;5.57;;;5.18;;
51236;SDS011;37312;47.550;18.818;2022-09-25T05:48:59;6.30;;;5.70;;
51236;SDS011;37312;47.550;18.818;2022-09-25T05:51:25;8.27;;;5.87;;
51236;SDS011;37312;47.550;18.818;2022-09-25T05:53:54;6.62;;;5.87;;
51236;SDS011;37312;47.550;18.818;2022-09-25T05:56:20;6.78;;;5.25;;
51236;SDS011;37312;47.550;18.818;2022-09-25T05:58:49;7.87;;;6.62;;
51236;SDS011;37312;47.550;18.818;2022-09-25T06:01:15;6.57;;;5.97;;
51236;SDS011;37312;47.550;18.818;2022-09-25T06:03:41;6.78;;;6.18;;
51236;SDS011;37312;47.550;18.818;2022-09-25T06:08:33;6.75;;;5.37;;
51236;SDS011;37312;47.550;18.818;2022-09-25T06:11:03;6.15;;;5.65;;
51236;SDS011;37312;47.550;18.818;2022-09-25T06:13:30;5.90;;;5.40;;
51236;SDS011;37312;47.550;18.818;2022-09-25T06:15:59;10.35;;;5.78;;
51236;SDS011;37312;47.550;18.818;2022-09-25T06:18:25;5.55;;;5.05;;
51236;SDS011;37312;47.550;18.818;2022-09-25T06:20:57;6.47;;;5.75;;
51236;SDS011;37312;47.550;18.818;2022-09-25T06:23:25;7.60;;;5.90;;
51236;SDS011;37312;47.550;18.818;2022-09-25T06:28:16;8.65;;;6.43;;
51236;SDS011;37312;47.550;18.818;2022-09-25T06:33:09;7.40;;;6.80;;
51236;SDS011;37312;47.550;18.818;2022-09-25T06:35:40;6.97;;;5.80;;
51236;SDS011;37312;47.550;18.818;2022-09-25T06:38:06;5.85;;;5.35;;
51236;SDS011;37312;47.550;18.818;2022-09-25T06:40:32;6.65;;;4.50;;
51236;SDS011;37312;47.550;18.818;2022-09-25T06:45:25;6.68;;;6.07;;
51236;SDS011;37312;47.550;18.818;2022-09-25T06:47:53;7.60;;;6.85;;
51236;SDS011;37312;47.550;18.818;2022-09-25T06:50:25;7.20;;;5.53;;
51236;SDS011;37312;47.550;18.818;2022-09-25T06:52:59;5.72;;;5.18;;
51236;SDS011;37312;47.550;18.818;2022-09-25T06:55:26;5.75;;;5.25;;
51236;SDS011;37312;47.550;18.818;2022-09-25T06:57:53;7.35;;;5.82;;
51236;SDS011;37312;47.550;18.818;2022-09-25T07:02:45;7.12;;;5.75;;
51236;SDS011;37312;47.550;18.818;2022-09-25T07:05:30;7.65;;;5.57;;
51236;SDS011;37312;47.550;18.818;2022-09-25T07:10:21;6.68;;;5.75;;
51236;SDS011;37312;47.550;18.818;2022-09-25T07:15:13;6.05;;;5.45;;
51236;SDS011;37312;47.550;18.818;2022-09-25T07:17:40;6.68;;;6.10;;
51236;SDS011;37312;47.550;18.818;2022-09-25T07:20:07;10.25;;;9.25;;
51236;SDS011;37312;47.550;18.818;2022-09-25T07:22:37;6.55;;;5.72;;
51236;SDS011;37312;47.550;18.818;2022-09-25T07:25:04;4.97;;;4.47;;
51236;SDS011;37312;47.550;18.818;2022-09-25T07:27:30;6.68;;;5.05;;
51236;SDS011;37312;47.550;18.818;2022-09-25T07:29:57;6.70;;;6.00;;
51236;SDS011;37312;47.550;18.818;2022-09-25T07:34:48;4.82;;;4.30;;
51236;SDS011;37312;47.550;18.818;2022-09-25T07:37:15;5.95;;;4.43;;
51236;SDS011;37312;47.550;18.818;2022-09-25T07:39:42;4.95;;;4.50;;
51236;SDS011;37312;47.550;18.818;2022-09-25T07:42:09;7.62;;;3.95;;
51236;SDS011;37312;47.550;18.818;2022-09-25T07:44:35;4.32;;;3.85;;
51236;SDS011;37312;47.550;18.818;2022-09-25T07:47:01;6.32;;;4.60;;
51236;SDS011;37312;47.550;18.818;2022-09-25T07:49:28;4.78;;;3.37;;
51236;SDS011;37312;47.550;18.818;2022-09-25T07:51:55;4.28;;;3.87;;
51236;SDS011;37312;47.550;18.818;2022-09-25T07:56:55;4.95;;;4.00;;
51236;SDS011;37312;47.550;18.818;2022-09-25T07:59:22;4.47;;;3.83;;
51236;SDS011;37312;47.550;18.818;2022-09-25T08:04:13;8.45;;;4.22;;
51236;SDS011;37312;47.550;18.818;2022-09-25T08:06:44;3.60;;;3.28;;
51236;SDS011;37312;47.550;18.818;2022-09-25T08:09:10;5.35;;;4.82;;
51236;SDS011;37312;47.550;18.818;2022-09-25T08:11:36;5.80;;;4.00;;
51236;SDS011;37312;47.550;18.818;2022-09-25T08:14:02;5.32;;;4.82;;
51236;SDS011;37312;47.550;18.818;2022-09-25T08:18:54;5.18;;;4.22;;
51236;SDS011;37312;47.550;18.818;2022-09-25T08:23:50;4.10;;;3.80;;
51236;SDS011;37312;47.550;18.818;2022-09-25T08:26:17;4.97;;;4.53;;
51236;SDS011;37312;47.550;18.818;2022-09-25T08:28:45;3.75;;;3.17;;
51236;SDS011;37312;47.550;18.818;2022-09-25T08:33:42;2.70;;;2.50;;
51236;SDS011;37312;47.550;18.818;2022-09-25T08:36:12;3.35;;;3.00;;
51236;SDS011;37312;47.550;18.818;2022-09-25T08:38:38;4.95;;;3.20;;
51236;SDS011;37312;47.550;18.818;2022-09-25T08:43:34;4.07;;;3.25;;
51236;SDS011;37312;47.550;18.818;2022-09-25T08:46:14;4.72;;;3.35;;
51236;SDS011;37312;47.550;18.818;2022-09-25T08:49:06;3.95;;;2.67;;
51236;SDS011;37312;47.550;18.818;2022-09-25T08:51:37;6.07;;;3.60;;
51236;SDS011;37312;47.550;18.818;2022-09-25T08:54:09;4.22;;;3.20;;
51236;SDS011;37312;47.550;18.818;2022-09-25T08:56:43;5.70;;;4.25;;
51236;SDS011;37312;47.550;18.818;2022-09-25T08:59:15;4.10;;;3.75;;
51236;SDS011;37312;47.550;18.818;2022-09-25T09:01:51;3.78;;;3.33;;
51236;SDS011;37312;47.550;18.818;2022-09-25T09:04:37;5.15;;;4.20;;
51236;SDS011;37312;47.550;18.818;2022-09-25T09:07:10;5.57;;;3.58;;
51236;SDS011;37312;47.550;18.818;2022-09-25T09:09:50;3.70;;;3.40;;
51236;SDS011;37312;47.550;18.818;2022-09-25T09:12:38;3.67;;;3.37;;
51236;SDS011;37312;47.550;18.818;2022-09-25T09:15:25;4.82;;;3.60;;
51236;SDS011;37312;47.550;18.818;2022-09-25T09:17:56;3.90;;;3.60;;
51236;SDS011;37312;47.550;18.818;2022-09-25T09:20:32;3.83;;;3.53;;
51236;SDS011;37312;47.550;18.818;2022-09-25T09:23:07;3.87;;;3.58;;
51236;SDS011;37312;47.550;18.818;2022-09-25T09:25:45;3.53;;;3.22;;
51236;SDS011;37312;47.550;18.818;2022-09-25T09:36:33;3.20;;;2.97;;
51236;SDS011;37312;47.550;18.818;2022-09-25T09:39:21;2.75;;;2.53;;
51236;SDS011;37312;47.550;18.818;2022-09-25T09:42:32;2.95;;;2.37;;
51236;SDS011;37312;47.550;18.818;2022-09-25T09:53:06;3.92;;;2.28;;
51236;SDS011;37312;47.550;18.818;2022-09-25T09:58:21;3.47;;;2.47;;
51236;SDS011;37312;47.550;18.818;2022-09-25T10:00:51;3.12;;;2.90;;
51236;SDS011;37312;47.550;18.818;2022-09-25T10:03:19;5.03;;;4.18;;
51236;SDS011;37312;47.550;18.818;2022-09-25T10:05:59;3.72;;;3.40;;
51236;SDS011;37312;47.550;18.818;2022-09-25T10:08:27;6.00;;;4.05;;
51236;SDS011;37312;47.550;18.818;2022-09-25T10:10:54;4.12;;;3.78;;
51236;SDS011;37312;47.550;18.818;2022-09-25T10:13:22;2.65;;;2.45;;
51236;SDS011;37312;47.550;18.818;2022-09-25T10:15:52;2.53;;;2.08;;
51236;SDS011;37312;47.550;18.818;2022-09-25T10:18:23;2.72;;;2.25;;
51236;SDS011;37312;47.550;18.818;2022-09-25T10:21:08;2.78;;;2.08;;
51236;SDS011;37312;47.550;18.818;2022-09-25T10:23:38;3.10;;;2.00;;
51236;SDS011;37312;47.550;18.818;2022-09-25T10:29:01;2.97;;;2.22;;
51236;SDS011;37312;47.550;18.818;2022-09-25T10:31:32;2.35;;;2.15;;
51236;SDS011;37312;47.550;18.818;2022-09-25T10:36:39;2.47;;;2.28;;
51236;SDS011;37312;47.550;18.818;2022-09-25T10:41:56;2.92;;;2.40;;
51236;SDS011;37312;47.550;18.818;2022-09-25T10:44:33;4.97;;;3.08;;
51236;SDS011;37312;47.550;18.818;2022-09-25T10:50:14;7.43;;;3.83;;
51236;SDS011;37312;47.550;18.818;2022-09-25T10:55:24;3.92;;;2.87;;
51236;SDS011;37312;47.550;18.818;2022-09-25T10:58:04;2.33;;;2.12;;
51236;SDS011;37312;47.550;18.818;2022-09-25T11:00:31;2.70;;;2.50;;
51236;SDS011;37312;47.550;18.818;2022-09-25T11:03:24;2.83;;;2.62;;
51236;SDS011;37312;47.550;18.818;2022-09-25T11:05:53;3.12;;;2.83;;
51236;SDS011;37312;47.550;18.818;2022-09-25T11:08:45;5.90;;;3.20;;
51236;SDS011;37312;47.550;18.818;2022-09-25T11:11:19;4.87;;;3.10;;
51236;SDS011;37312;47.550;18.818;2022-09-25T11:13:52;3.10;;;2.83;;
51236;SDS011;37312;47.550;18.818;2022-09-25T11:19:27;3.95;;;2.87;;
51236;SDS011;37312;47.550;18.818;2022-09-25T11:27:45;5.97;;;3.03;;
51236;SDS011;37312;47.550;18.818;2022-09-25T11:30:18;3.55;;;3.28;;
51236;SDS011;37312;47.550;18.818;2022-09-25T11:41:09;3.05;;;2.40;;
51236;SDS011;37312;47.550;18.818;2022-09-25T11:49:40;3.25;;;2.95;;
51236;SDS011;37312;47.550;18.818;2022-09-25T12:03:56;3.83;;;3.08;;
51236;SDS011;37312;47.550;18.818;2022-09-25T12:06:44;4.97;;;3.00;;
51236;SDS011;37312;47.550;18.818;2022-09-25T12:27:56;6.80;;;4.90;;
51236;SDS011;37312;47.550;18.818;2022-09-25T12:30:31;5.15;;;4.75;;
51236;SDS011;37312;47.550;18.818;2022-09-25T12:35:39;4.68;;;4.28;;
51236;SDS011;37312;47.550;18.818;2022-09-25T12:38:15;6.00;;;5.47;;
51236;SDS011;37312;47.550;18.818;2022-09-25T12:46:05;5.32;;;4.72;;
51236;SDS011;37312;47.550;18.818;2022-09-25T12:49:15;7.47;;;3.92;;
51236;SDS011;37312;47.550;18.818;2022-09-25T12:51:49;4.78;;;4.37;;
51236;SDS011;37312;47.550;18.818;2022-09-25T12:54:21;4.80;;;4.40;;
51236;SDS011;37312;47.550;18.818;2022-09-25T12:56:56;7.20;;;5.85;;
51236;SDS011;37312;47.550;18.818;2022-09-25T12:59:32;6.57;;;5.07;;
51236;SDS011;37312;47.550;18.818;2022-09-25T13:02:10;8.50;;;6.12;;
51236;SDS011;37312;47.550;18.818;2022-09-25T13:07:20;7.15;;;6.50;;
51236;SDS011;37312;47.550;18.818;2022-09-25T13:09:52;5.22;;;4.72;;
51236;SDS011;37312;47.550;18.818;2022-09-25T13:15:04;4.87;;;4.15;;
51236;SDS011;37312;47.550;18.818;2022-09-25T13:17:35;4.30;;;4.00;;
51236;SDS011;37312;47.550;18.818;2022-09-25T13:23:15;4.40;;;4.05;;
51236;SDS011;37312;47.550;18.818;2022-09-25T13:25:46;4.60;;;4.25;;
51236;SDS011;37312;47.550;18.818;2022-09-25T13:28:25;4.70;;;4.30;;
51236;SDS011;37312;47.550;18.818;2022-09-25T13:31:28;8.07;;;6.30;;
51236;SDS011;37312;47.550;18.818;2022-09-25T13:33:56;8.82;;;7.87;;
51236;SDS011;37312;47.550;18.818;2022-09-25T13:39:00;15.68;;;12.35;;
51236;SDS011;37312;47.550;18.818;2022-09-25T13:41:57;21.23;;;17.80;;
51236;SDS011;37312;47.550;18.818;2022-09-25T13:49:49;4.80;;;4.40;;
51236;SDS011;37312;47.550;18.818;2022-09-25T14:00:19;5.53;;;4.55;;
51236;SDS011;37312;47.550;18.818;2022-09-25T14:05:12;4.97;;;4.43;;
51236;SDS011;37312;47.550;18.818;2022-09-25T14:07:41;3.90;;;3.65;;
51236;SDS011;37312;47.550;18.818;2022-09-25T14:10:08;3.83;;;3.53;;
51236;SDS011;37312;47.550;18.818;2022-09-25T14:12:36;4.47;;;3.50;;
51236;SDS011;37312;47.550;18.818;2022-09-25T14:17:43;5.87;;;3.97;;
51236;SDS011;37312;47.550;18.818;2022-09-25T14:23:11;5.25;;;4.72;;
51236;SDS011;37312;47.550;18.818;2022-09-25T14:25:51;6.28;;;5.68;;
51236;SDS011;37312;47.550;18.818;2022-09-25T14:28:28;4.25;;;3.92;;
51236;SDS011;37312;47.550;18.818;2022-09-25T14:46:34;5.87;;;4.75;;
51236;SDS011;37312;47.550;18.818;2022-09-25T14:49:10;6.35;;;5.60;;
51236;SDS011;37312;47.550;18.818;2022-09-25T14:51:48;8.50;;;7.78;;
51236;SDS011;37312;47.550;18.818;2022-09-25T14:54:17;6.53;;;5.18;;
51236;SDS011;37312;47.550;18.818;2022-09-25T14:56:47;5.65;;;5.22;;
51236;SDS011;37312;47.550;18.818;2022-09-25T14:59:16;3.92;;;3.62;;
51236;SDS011;37312;47.550;18.818;2022-09-25T15:02:10;4.07;;;3.65;;
51236;SDS011;37312;47.550;18.818;2022-09-25T15:04:45;4.18;;;3.87;;
51236;SDS011;37312;47.550;18.818;2022-09-25T15:07:14;4.37;;;3.87;;
51236;SDS011;37312;47.550;18.818;2022-09-25T15:09:48;5.00;;;4.55;;
51236;SDS011;37312;47.550;18.818;2022-09-25T15:12:19;4.35;;;3.95;;
51236;SDS011;37312;47.550;18.818;2022-09-25T15:17:49;6.07;;;5.57;;
51236;SDS011;37312;47.550;18.818;2022-09-25T15:20:21;6.50;;;6.00;;
51236;SDS011;37312;47.550;18.818;2022-09-25T15:22:57;6.85;;;6.30;;
51236;SDS011;37312;47.550;18.818;2022-09-25T15:25:28;7.05;;;6.45;;
51236;SDS011;37312;47.550;18.818;2022-09-25T15:27:57;9.32;;;8.52;;
51236;SDS011;37312;47.550;18.818;2022-09-25T15:30:25;9.73;;;8.75;;
51236;SDS011;37312;47.550;18.818;2022-09-25T15:32:52;9.68;;;8.77;;
51236;SDS011;37312;47.550;18.818;2022-09-25T15:35:23;8.68;;;7.97;;
51236;SDS011;37312;47.550;18.818;2022-09-25T15:38:06;11.30;;;10.15;;
51236;SDS011;37312;47.550;18.818;2022-09-25T15:40:35;9.43;;;8.43;;
51236;SDS011;37312;47.550;18.818;2022-09-25T15:43:02;8.32;;;7.65;;
51236;SDS011;37312;47.550;18.818;2022-09-25T15:50:35;20.40;;;14.68;;
51236;SDS011;37312;47.550;18.818;2022-09-25T15:53:02;15.35;;;13.80;;
51236;SDS011;37312;47.550;18.818;2022-09-25T15:55:28;12.95;;;11.70;;
51236;SDS011;37312;47.550;18.818;2022-09-25T15:58:02;19.00;;;14.68;;
51236;SDS011;37312;47.550;18.818;2022-09-25T16:00:31;17.00;;;15.30;;
51236;SDS011;37312;47.550;18.818;2022-09-25T16:03:20;17.17;;;11.32;;
51236;SDS011;37312;47.550;18.818;2022-09-25T16:06:11;12.10;;;10.68;;
51236;SDS011;37312;47.550;18.818;2022-09-25T16:08:39;13.27;;;10.75;;
51236;SDS011;37312;47.550;18.818;2022-09-25T16:11:24;14.23;;;10.57;;
51236;SDS011;37312;47.550;18.818;2022-09-25T16:14:17;8.68;;;7.87;;
51236;SDS011;37312;47.550;18.818;2022-09-25T16:16:46;7.78;;;7.07;;
51236;SDS011;37312;47.550;18.818;2022-09-25T16:21:49;7.07;;;6.47;;
51236;SDS011;37312;47.550;18.818;2022-09-25T16:24:20;7.18;;;6.30;;
51236;SDS011;37312;47.550;18.818;2022-09-25T16:26:58;7.93;;;7.05;;
51236;SDS011;37312;47.550;18.818;2022-09-25T16:29:29;10.73;;;8.77;;
51236;SDS011;37312;47.550;18.818;2022-09-25T16:32:02;10.50;;;9.57;;
51236;SDS011;37312;47.550;18.818;2022-09-25T16:34:37;9.75;;;8.85;;
51236;SDS011;37312;47.550;18.818;2022-09-25T16:37:06;9.07;;;7.95;;
51236;SDS011;37312;47.550;18.818;2022-09-25T16:39:43;8.20;;;7.40;;
51236;SDS011;37312;47.550;18.818;2022-09-25T16:44:51;9.05;;;8.25;;
51236;SDS011;37312;47.550;18.818;2022-09-25T16:47:28;8.60;;;7.75;;
51236;SDS011;37312;47.550;18.818;2022-09-25T16:49:55;10.25;;;7.22;;
51236;SDS011;37312;47.550;18.818;2022-09-25T16:52:21;8.82;;;8.02;;
51236;SDS011;37312;47.550;18.818;2022-09-25T16:54:51;10.00;;;9.27;;
51236;SDS011;37312;47.550;18.818;2022-09-25T16:57:22;9.32;;;8.18;;
51236;SDS011;37312;47.550;18.818;2022-09-25T16:59:50;10.57;;;9.55;;
51236;SDS011;37312;47.550;18.818;2022-09-25T17:02:32;8.95;;;8.23;;
51236;SDS011;37312;47.550;18.818;2022-09-25T17:05:04;7.62;;;7.10;;
51236;SDS011;37312;47.550;18.818;2022-09-25T17:07:32;7.22;;;6.62;;
51236;SDS011;37312;47.550;18.818;2022-09-25T17:09:58;5.75;;;5.28;;
51236;SDS011;37312;47.550;18.818;2022-09-25T17:12:26;8.30;;;6.62;;
51236;SDS011;37312;47.550;18.818;2022-09-25T17:14:53;8.00;;;6.43;;
51236;SDS011;37312;47.550;18.818;2022-09-25T17:17:20;8.48;;;7.68;;
51236;SDS011;37312;47.550;18.818;2022-09-25T17:19:49;10.40;;;9.23;;
51236;SDS011;37312;47.550;18.818;2022-09-25T17:22:15;12.57;;;11.57;;
51236;SDS011;37312;47.550;18.818;2022-09-25T17:24:41;10.80;;;9.73;;
51236;SDS011;37312;47.550;18.818;2022-09-25T17:27:14;13.93;;;9.48;;
51236;SDS011;37312;47.550;18.818;2022-09-25T17:29:41;9.15;;;8.25;;
51236;SDS011;37312;47.550;18.818;2022-09-25T17:32:13;7.30;;;6.72;;
51236;SDS011;37312;47.550;18.818;2022-09-25T17:34:45;17.85;;;13.13;;
51236;SDS011;37312;47.550;18.818;2022-09-25T17:37:11;8.55;;;7.18;;
51236;SDS011;37312;47.550;18.818;2022-09-25T17:39:37;9.13;;;8.40;;
51236;SDS011;37312;47.550;18.818;2022-09-25T17:42:03;6.90;;;6.40;;
51236;SDS011;37312;47.550;18.818;2022-09-25T17:44:29;6.72;;;6.12;;
51236;SDS011;37312;47.550;18.818;2022-09-25T17:46:55;7.05;;;6.43;;
51236;SDS011;37312;47.550;18.818;2022-09-25T17:49:22;9.82;;;8.07;;
51236;SDS011;37312;47.550;18.818;2022-09-25T17:51:48;7.28;;;6.55;;
51236;SDS011;37312;47.550;18.818;2022-09-25T17:54:15;6.90;;;6.30;;
51236;SDS011;37312;47.550;18.818;2022-09-25T17:56:42;10.20;;;7.68;;
51236;SDS011;37312;47.550;18.818;2022-09-25T17:59:09;9.50;;;7.43;;
51236;SDS011;37312;47.550;18.818;2022-09-25T18:01:36;10.25;;;6.75;;
51236;SDS011;37312;47.550;18.818;2022-09-25T18:04:11;7.62;;;6.97;;
51236;SDS011;37312;47.550;18.818;2022-09-25T18:06:38;7.22;;;6.62;;
51236;SDS011;37312;47.550;18.818;2022-09-25T18:09:08;8.77;;;6.25;;
51236;SDS011;37312;47.550;18.818;2022-09-25T18:11:34;8.73;;;7.93;;
51236;SDS011;37312;47.550;18.818;2022-09-25T18:16:28;10.75;;;9.93;;
51236;SDS011;37312;47.550;18.818;2022-09-25T18:18:56;10.55;;;8.60;;
51236;SDS011;37312;47.550;18.818;2022-09-25T18:21:41;9.00;;;8.20;;
51236;SDS011;37312;47.550;18.818;2022-09-25T18:24:26;10.10;;;9.18;;
51236;SDS011;37312;47.550;18.818;2022-09-25T18:26:53;7.97;;;7.22;;
51236;SDS011;37312;47.550;18.818;2022-09-25T18:29:21;7.72;;;6.97;;
51236;SDS011;37312;47.550;18.818;2022-09-25T18:31:47;6.93;;;6.37;;
51236;SDS011;37312;47.550;18.818;2022-09-25T18:34:13;9.60;;;6.78;;
51236;SDS011;37312;47.550;18.818;2022-09-25T18:36:40;6.82;;;6.20;;
51236;SDS011;37312;47.550;18.818;2022-09-25T18:39:06;8.35;;;7.37;;
51236;SDS011;37312;47.550;18.818;2022-09-25T18:44:01;5.87;;;5.32;;
51236;SDS011;37312;47.550;18.818;2022-09-25T18:46:28;8.63;;;7.85;;
51236;SDS011;37312;47.550;18.818;2022-09-25T18:51:22;7.87;;;7.22;;
51236;SDS011;37312;47.550;18.818;2022-09-25T18:53:48;6.70;;;6.20;;
51236;SDS011;37312;47.550;18.818;2022-09-25T18:56:17;6.85;;;6.15;;
51236;SDS011;37312;47.550;18.818;2022-09-25T18:58:45;8.73;;;7.93;;
51236;SDS011;37312;47.550;18.818;2022-09-25T19:01:12;7.85;;;7.12;;
51236;SDS011;37312;47.550;18.818;2022-09-25T19:03:39;10.55;;;7.68;;
51236;SDS011;37312;47.550;18.818;2022-09-25T19:06:07;15.10;;;11.07;;
51236;SDS011;37312;47.550;18.818;2022-09-25T19:08:34;8.30;;;7.57;;
51236;SDS011;37312;47.550;18.818;2022-09-25T19:11:00;13.93;;;9.85;;